Ardgay, United Kingdom
Current Conditions -  °F | °C
As of 2:50 PM on Sunday 21 Dec 2014 (Local Time) from EGPE Reporting Station
Moderate Rain Moderate Rain  
Wind Chill: 50°   Ceiling: 4400
Heat Index: 50°   Visibility: 4mi
Dew Point: 48°   Wind: 13mph
Humidity: 94%   Direction: 240°WSW
Pressure: 29.56"   Gusts: NA
Location:  57.9°N, 4.35°W
Report Text: EGPE 211450Z 24011KT 6000 RA FEW009 SCT033 BKN044 10/09 Q1001
Loading
Personal Weather Stations






























Interactive Weather Map New forecast layout! Learn more

10-Day Weather Forecast

Advertisements
Track Severe Weather on mobile